Time;durP1;ratioP1;P1;durP2;ratioP2;P2;SDS_P1;SDS_P2;PMS_P1;PMS_P2;Temp;Humidity;BMP_temperature;BMP_pressure;BME280_temperature;BME280_humidity;BME280_pressure;Samples;Min_cycle;Max_cycle;Signal;HPM_P1;HPM_P2
2021/09/14 00:01:59;;;;;;;6.68;3.30;;;13.00;99.90;;;;;;4900421;29;20024;-92
2021/09/14 00:04:25;;;;;;;8.32;3.38;;;13.00;99.90;;;;;;4900306;29;20111;-92
2021/09/14 00:06:52;;;;;;;8.13;3.55;;;13.10;99.90;;;;;;4900700;29;20059;-92
2021/09/14 00:09:18;;;;;;;11.95;3.53;;;13.10;99.90;;;;;;4899909;29;20024;-92
2021/09/14 00:11:43;;;;;;;9.35;3.72;;;13.10;99.90;;;;;;4899580;29;20557;-92
2021/09/14 00:14:09;;;;;;;8.63;3.90;;;13.10;99.90;;;;;;4899946;29;20435;-90
2021/09/14 00:16:35;;;;;;;6.45;3.20;;;13.10;99.90;;;;;;4917125;29;20489;-91
2021/09/14 00:19:00;;;;;;;7.88;3.30;;;13.20;99.90;;;;;;4899789;29;20461;-92
2021/09/14 00:21:26;;;;;;;8.80;3.80;;;13.20;99.90;;;;;;4899831;29;20032;-92
2021/09/14 00:23:52;;;;;;;10.70;3.92;;;13.20;99.90;;;;;;4899876;29;20411;-92
2021/09/14 00:26:17;;;;;;;10.27;3.63;;;13.20;99.90;;;;;;4916824;29;20051;-90
2021/09/14 00:28:43;;;;;;;7.00;3.50;;;13.30;99.90;;;;;;4903215;29;20079;-95
2021/09/14 00:31:09;;;;;;;4.57;3.50;;;13.30;99.90;;;;;;4900786;29;20136;-92
2021/09/14 00:33:35;;;;;;;6.75;3.40;;;13.30;99.90;;;;;;4917027;29;20155;-93
2021/09/14 00:36:00;;;;;;;7.18;4.05;;;13.30;99.90;;;;;;4916468;29;20043;-90
2021/09/14 00:38:27;;;;;;;5.53;3.47;;;13.30;99.90;;;;;;4896474;29;20056;-91
2021/09/14 00:40:53;;;;;;;6.93;3.53;;;13.30;99.90;;;;;;4896691;29;20025;-93
2021/09/14 00:43:23;;;;;;;9.88;3.75;;;13.30;99.90;;;;;;4896301;29;20475;-91
2021/09/14 00:45:52;;;;;;;6.18;3.65;;;13.30;99.90;;;;;;4894328;29;20062;-92
2021/09/14 00:48:18;;;;;;;6.95;3.92;;;13.30;99.90;;;;;;4899657;29;20032;-93
2021/09/14 00:50:44;;;;;;;7.22;3.42;;;13.30;99.90;;;;;;4899732;29;20035;-91
2021/09/14 00:53:10;;;;;;;5.75;3.67;;;13.30;99.90;;;;;;4899217;29;20025;-92
2021/09/14 00:55:36;;;;;;;8.80;3.88;;;13.30;99.90;;;;;;4899900;29;20091;-92
2021/09/14 00:58:02;;;;;;;12.35;4.05;;;13.30;99.90;;;;;;4899561;29;20043;-91
2021/09/14 01:00:27;;;;;;;9.05;4.07;;;13.30;99.90;;;;;;4900742;29;20039;-91
2021/09/14 01:02:54;;;;;;;13.98;4.72;;;13.30;99.90;;;;;;4899480;29;20058;-92
2021/09/14 01:05:20;;;;;;;10.07;4.30;;;13.30;99.90;;;;;;4899445;29;20028;-91
2021/09/14 01:07:46;;;;;;;7.00;3.90;;;13.30;99.90;;;;;;4899988;29;20083;-94
2021/09/14 01:10:13;;;;;;;10.32;3.97;;;13.30;99.90;;;;;;4899742;29;20020;-91
2021/09/14 01:12:40;;;;;;;5.57;3.17;;;13.30;99.90;;;;;;4899345;29;20016;-94
2021/09/14 01:15:06;;;;;;;5.72;3.25;;;13.30;99.90;;;;;;4899952;29;20081;-93
2021/09/14 01:17:32;;;;;;;6.50;2.95;;;13.30;99.90;;;;;;4900060;29;20025;-93
2021/09/14 01:19:58;;;;;;;14.82;4.05;;;13.20;99.90;;;;;;4900729;29;20111;-93
2021/09/14 01:22:26;;;;;;;8.80;3.40;;;13.20;99.90;;;;;;4903043;29;20129;-91
2021/09/14 01:24:51;;;;;;;9.45;3.03;;;13.10;99.90;;;;;;4901460;29;20053;-91
2021/09/14 01:27:17;;;;;;;8.75;3.67;;;13.10;99.90;;;;;;4902932;29;20029;-92
2021/09/14 01:32:27;;;;;;;6.70;3.17;;;13.10;99.90;;;;;;4902089;29;20043;-92
2021/09/14 01:34:53;;;;;;;6.90;3.10;;;13.10;99.90;;;;;;4900870;29;20028;-92
2021/09/14 01:37:18;;;;;;;7.43;3.22;;;13.10;99.90;;;;;;4901904;29;20039;-91
2021/09/14 01:39:44;;;;;;;8.75;3.05;;;13.00;99.90;;;;;;4903170;29;20127;-92
2021/09/14 01:42:10;;;;;;;7.32;3.20;;;13.00;99.90;;;;;;4902629;29;20259;-93
2021/09/14 01:44:35;;;;;;;8.65;3.80;;;13.00;99.90;;;;;;4902575;29;20040;-91
2021/09/14 01:47:01;;;;;;;10.30;3.45;;;13.00;99.90;;;;;;4902623;29;20119;-90
2021/09/14 01:49:26;;;;;;;6.88;3.42;;;13.00;99.90;;;;;;4900468;29;20060;-91
2021/09/14 01:51:52;;;;;;;6.10;3.25;;;13.00;99.90;;;;;;4902181;29;20058;-90
2021/09/14 01:54:18;;;;;;;5.97;3.92;;;12.90;99.90;;;;;;4902298;29;20402;-90
2021/09/14 01:56:43;;;;;;;8.93;3.40;;;12.90;99.90;;;;;;4918948;29;20021;-91
2021/09/14 01:59:11;;;;;;;7.10;4.28;;;12.90;99.90;;;;;;4919021;29;20031;-91
2021/09/14 02:01:49;;;;;;;11.85;3.97;;;12.90;99.90;;;;;;4901832;29;20051;-91
2021/09/14 02:04:20;;;;;;;10.65;4.10;;;12.90;99.90;;;;;;4902197;29;20091;-92
2021/09/14 03:01:12;;;;;;;10.90;5.32;;;12.90;99.90;;;;;;4869522;29;20030;-92
2021/09/14 03:03:41;;;;;;;10.60;4.97;;;12.90;99.90;;;;;;4875486;29;20025;-91
2021/09/14 03:06:07;;;;;;;10.68;5.80;;;12.90;99.90;;;;;;4897620;29;20486;-92
2021/09/14 03:08:39;;;;;;;11.45;5.50;;;12.90;99.90;;;;;;4910346;29;20055;-92
2021/09/14 03:11:13;;;;;;;15.05;5.93;;;13.00;99.90;;;;;;4909947;29;20028;-91
2021/09/14 03:13:41;;;;;;;13.18;6.07;;;13.00;99.90;;;;;;4907624;29;20079;-92
2021/09/14 03:16:09;;;;;;;12.40;6.10;;;13.00;99.90;;;;;;4921550;29;20047;-90
2021/09/14 03:18:36;;;;;;;15.02;6.13;;;12.90;99.90;;;;;;4921564;29;20060;-91
2021/09/14 03:21:04;;;;;;;17.35;6.82;;;12.90;99.90;;;;;;4902614;29;20100;-91
2021/09/14 03:23:30;;;;;;;10.98;6.50;;;13.00;99.90;;;;;;4898542;29;20055;-93
2021/09/14 03:25:56;;;;;;;18.08;7.25;;;13.00;99.90;;;;;;4900881;29;20044;-90
2021/09/14 03:28:22;;;;;;;11.27;5.60;;;12.90;99.90;;;;;;4917643;29;20088;-91
2021/09/14 03:30:48;;;;;;;10.15;5.75;;;12.90;99.90;;;;;;4900865;29;20032;-91
2021/09/14 03:33:14;;;;;;;14.63;7.20;;;13.00;99.90;;;;;;4901082;29;20055;-91
2021/09/14 03:35:40;;;;;;;12.75;6.43;;;13.00;99.90;;;;;;4900323;29;20055;-92
2021/09/14 03:38:05;;;;;;;10.20;6.15;;;13.00;99.90;;;;;;4900052;29;20059;-91
2021/09/14 03:40:32;;;;;;;7.53;4.93;;;13.00;99.90;;;;;;4917273;29;20024;-90
2021/09/14 03:42:57;;;;;;;15.07;5.80;;;13.00;99.90;;;;;;4900691;29;20032;-91
2021/09/14 03:45:23;;;;;;;12.57;5.18;;;13.00;99.90;;;;;;4916930;29;20465;-92
2021/09/14 03:47:49;;;;;;;11.40;5.40;;;13.00;99.90;;;;;;4900154;29;20028;-92
2021/09/14 03:50:14;;;;;;;11.50;6.05;;;13.00;99.90;;;;;;4900587;29;20039;-91
2021/09/14 03:52:40;;;;;;;10.20;6.38;;;13.10;99.90;;;;;;4900466;29;20083;-91
2021/09/14 03:55:07;;;;;;;12.13;6.07;;;13.00;99.90;;;;;;4900774;29;20024;-92
2021/09/14 03:57:32;;;;;;;10.02;5.50;;;13.00;99.90;;;;;;4899911;29;20035;-91
2021/09/14 03:59:58;;;;;;;11.13;6.00;;;13.00;99.90;;;;;;4899892;29;20032;-90
2021/09/14 04:07:25;;;;;;;11.23;5.30;;;13.00;99.90;;;;;;4917129;29;20028;-91
2021/09/14 04:09:52;;;;;;;12.98;6.00;;;13.00;99.90;;;;;;4898043;29;20082;-91
2021/09/14 04:12:18;;;;;;;11.23;5.50;;;13.00;99.90;;;;;;4900692;29;20028;-91
2021/09/14 04:14:43;;;;;;;14.82;6.47;;;13.00;99.90;;;;;;4901265;29;20016;-92
2021/09/14 04:17:10;;;;;;;11.93;6.47;;;13.00;99.90;;;;;;4901565;29;20035;-88
2021/09/14 04:19:36;;;;;;;12.18;6.72;;;13.00;99.90;;;;;;4901041;29;20024;-91
2021/09/14 04:22:03;;;;;;;19.90;7.30;;;13.00;99.90;;;;;;4902265;29;20042;-90
2021/09/14 04:24:28;;;;;;;12.10;6.47;;;13.00;99.90;;;;;;4899360;29;20095;-89
2021/09/14 04:26:54;;;;;;;10.93;5.82;;;13.10;99.90;;;;;;4904220;29;20459;-89
2021/09/14 04:29:20;;;;;;;12.25;7.30;;;13.10;99.90;;;;;;4905705;29;20458;-91
2021/09/14 04:31:46;;;;;;;10.05;5.65;;;13.10;99.90;;;;;;4915020;29;20079;-91
2021/09/14 04:34:11;;;;;;;20.17;7.85;;;13.10;99.90;;;;;;4921336;29;20020;-91
2021/09/14 04:36:37;;;;;;;10.77;6.30;;;13.10;99.90;;;;;;4922804;29;20016;-91
2021/09/14 04:39:03;;;;;;;22.48;8.93;;;13.10;99.90;;;;;;4920221;29;20055;-91
2021/09/14 04:41:29;;;;;;;20.98;10.52;;;13.20;99.90;;;;;;4912506;29;20055;-91
2021/09/14 04:43:54;;;;;;;15.35;7.40;;;13.20;99.90;;;;;;4904852;29;20387;-93
2021/09/14 04:46:20;;;;;;;18.50;9.73;;;13.10;99.90;;;;;;4902864;29;20065;-91
2021/09/14 04:48:46;;;;;;;14.80;8.82;;;13.20;99.90;;;;;;4902337;29;20272;-92
2021/09/14 04:51:11;;;;;;;19.13;9.82;;;13.20;99.90;;;;;;4902779;29;20478;-91
2021/09/14 04:53:37;;;;;;;20.95;10.43;;;13.20;99.90;;;;;;4901425;29;20478;-90
2021/09/14 04:56:03;;;;;;;13.52;7.88;;;13.20;99.90;;;;;;4901676;29;20043;-91
2021/09/14 04:58:29;;;;;;;17.42;9.02;;;13.20;99.90;;;;;;4917276;29;20062;-91
2021/09/14 05:00:54;;;;;;;20.98;9.98;;;13.20;99.90;;;;;;4900231;29;20059;-92
2021/09/14 05:03:20;;;;;;;16.70;9.60;;;13.20;99.90;;;;;;4901183;29;20039;-91
2021/09/14 05:05:46;;;;;;;16.88;8.88;;;13.20;99.90;;;;;;4900182;29;20032;-91
2021/09/14 05:08:11;;;;;;;16.92;8.95;;;13.30;99.90;;;;;;4901017;29;20382;-91
2021/09/14 05:10:38;;;;;;;14.95;8.52;;;13.30;99.90;;;;;;4900554;29;20048;-91
2021/09/14 05:13:04;;;;;;;19.25;9.50;;;13.30;99.90;;;;;;4900539;29;20029;-91
2021/09/14 05:15:30;;;;;;;20.10;9.07;;;13.30;99.90;;;;;;4900006;29;20035;-91
2021/09/14 05:17:56;;;;;;;22.25;9.55;;;13.30;99.90;;;;;;4900705;29;20024;-92
2021/09/14 05:20:22;;;;;;;19.08;10.07;;;13.30;99.90;;;;;;4917992;29;20024;-92
2021/09/14 05:22:53;;;;;;;14.77;8.10;;;13.40;99.90;;;;;;4900288;29;20546;-92
2021/09/14 05:25:18;;;;;;;;;;;13.30;99.90;;;;;;4918447;29;20568;-93
2021/09/14 05:27:44;;;;;;;17.23;8.82;;;13.30;99.90;;;;;;4901891;29;19911;-90
2021/09/14 05:30:10;;;;;;;18.92;8.00;;;13.30;99.90;;;;;;4917980;29;20024;-91
2021/09/14 05:32:35;;;;;;;10.18;6.55;;;13.30;99.90;;;;;;4902611;29;20028;-91
2021/09/14 05:35:02;;;;;;;13.60;7.97;;;13.30;99.90;;;;;;4903668;29;20036;-93
2021/09/14 05:37:27;;;;;;;15.35;7.90;;;13.30;99.90;;;;;;4900035;29;20048;-90
2021/09/14 05:39:53;;;;;;;13.23;6.95;;;13.30;99.90;;;;;;4882166;29;20036;-91
2021/09/14 05:42:19;;;;;;;13.48;7.18;;;13.30;99.90;;;;;;4884107;29;20172;-90
2021/09/14 05:44:45;;;;;;;16.90;7.70;;;13.30;99.90;;;;;;4883476;29;20048;-89
2021/09/14 05:47:10;;;;;;;16.15;10.05;;;13.30;99.90;;;;;;4883855;29;20051;-91
2021/09/14 05:49:36;;;;;;;18.77;10.90;;;13.30;99.90;;;;;;4883826;29;20032;-91
2021/09/14 05:52:02;;;;;;;21.42;11.82;;;13.30;99.90;;;;;;4883517;29;20157;-91
2021/09/14 05:54:27;;;;;;;17.65;10.18;;;13.30;99.90;;;;;;4883855;29;20065;-92
2021/09/14 05:56:53;;;;;;;23.90;11.82;;;13.30;99.90;;;;;;4884527;29;20041;-91
2021/09/14 05:59:19;;;;;;;18.42;11.85;;;13.30;99.90;;;;;;4883724;29;20029;-89
2021/09/14 06:01:44;;;;;;;27.77;12.93;;;13.30;99.90;;;;;;4884318;29;20088;-90
2021/09/14 06:04:10;;;;;;;23.25;12.02;;;13.30;99.90;;;;;;4884388;29;20028;-89
2021/09/14 06:06:37;;;;;;;27.08;12.93;;;13.30;99.90;;;;;;4899788;29;20041;-89
2021/09/14 06:09:03;;;;;;;23.25;10.57;;;13.30;99.90;;;;;;4884605;29;20021;-91
2021/09/14 06:11:28;;;;;;;21.30;13.27;;;13.30;99.90;;;;;;4883535;29;20034;-90
2021/09/14 06:13:54;;;;;;;23.60;11.57;;;13.30;99.90;;;;;;4883168;29;20044;-90
2021/09/14 06:16:20;;;;;;;20.38;12.43;;;13.30;99.90;;;;;;4883031;29;20394;-88
2021/09/14 06:18:46;;;;;;;16.45;9.45;;;13.30;99.90;;;;;;4883068;29;20553;-89
2021/09/14 06:21:13;;;;;;;29.13;12.90;;;13.30;99.90;;;;;;4883424;29;20100;-88
2021/09/14 06:23:39;;;;;;;22.25;10.88;;;13.30;99.90;;;;;;4882924;29;20147;-90
2021/09/14 06:26:05;;;;;;;20.58;10.18;;;13.30;99.90;;;;;;4882541;29;20565;-90
2021/09/14 06:28:31;;;;;;;24.45;10.77;;;13.30;99.90;;;;;;4882020;29;20128;-91
2021/09/14 06:30:56;;;;;;;18.52;10.05;;;13.30;99.90;;;;;;4882084;29;20035;-91
2021/09/14 06:33:23;;;;;;;18.77;10.00;;;13.30;99.90;;;;;;4882704;29;20572;-90
2021/09/14 06:35:49;;;;;;;19.35;9.55;;;13.30;99.90;;;;;;4882869;29;20028;-91
2021/09/14 06:38:15;;;;;;;21.08;9.75;;;13.30;99.90;;;;;;4882752;29;20414;-92
2021/09/14 06:40:40;;;;;;;19.98;10.00;;;13.30;99.90;;;;;;4882510;29;20097;-90
2021/09/14 06:43:06;;;;;;;19.67;9.70;;;13.40;99.90;;;;;;4881541;29;20036;-91
2021/09/14 06:45:32;;;;;;;17.98;9.88;;;13.40;99.90;;;;;;4881592;29;20037;-90
2021/09/14 06:47:58;;;;;;;20.70;9.88;;;13.40;99.90;;;;;;4879742;29;20418;-90
2021/09/14 06:50:23;;;;;;;24.02;11.43;;;13.30;99.90;;;;;;4879958;29;20036;-90
2021/09/14 06:52:49;;;;;;;25.58;12.32;;;13.30;99.90;;;;;;4881864;29;20041;-91
2021/09/14 06:55:16;;;;;;;35.22;14.70;;;13.30;99.90;;;;;;4881772;29;20032;-91
2021/09/14 06:57:42;;;;;;;29.25;12.02;;;13.30;99.90;;;;;;4881314;29;20035;-89
2021/09/14 07:00:08;;;;;;;24.73;12.65;;;13.30;99.90;;;;;;4882902;29;20115;-89
2021/09/14 07:02:34;;;;;;;22.38;11.20;;;13.30;99.90;;;;;;4899155;29;20048;-90
2021/09/14 07:05:00;;;;;;;21.30;10.85;;;13.30;99.90;;;;;;4882908;29;20072;-91
2021/09/14 07:07:25;;;;;;;23.30;10.50;;;13.30;99.90;;;;;;4876273;29;20068;-91
2021/09/14 07:09:51;;;;;;;17.77;10.85;;;13.30;99.90;;;;;;4886409;29;20472;-91
2021/09/14 07:12:17;;;;;;;25.13;13.30;;;13.30;99.90;;;;;;4895119;29;20056;-90
2021/09/14 07:14:42;;;;;;;23.55;10.23;;;13.30;99.90;;;;;;4896028;29;20044;-90
2021/09/14 07:17:09;;;;;;;23.63;10.88;;;13.30;99.90;;;;;;4889699;29;20093;-91
2021/09/14 07:19:35;;;;;;;26.42;12.38;;;13.40;99.90;;;;;;4887650;29;20028;-90
2021/09/14 07:22:01;;;;;;;27.52;11.27;;;13.40;99.90;;;;;;4883306;29;20035;-91
2021/09/14 07:24:26;;;;;;;25.55;13.18;;;13.40;99.90;;;;;;4900027;29;20550;-90
2021/09/14 07:26:52;;;;;;;22.88;12.40;;;13.40;99.90;;;;;;4883714;29;20126;-91
2021/09/14 07:29:18;;;;;;;28.05;13.02;;;13.50;99.90;;;;;;4883901;29;20039;-92
2021/09/14 07:31:45;;;;;;;25.80;13.38;;;13.50;99.90;;;;;;4883398;29;20475;-89
2021/09/14 07:34:10;;;;;;;24.45;13.10;;;13.50;99.90;;;;;;4882842;29;20040;-91
2021/09/14 07:36:36;;;;;;;18.98;10.85;;;13.50;99.90;;;;;;4883343;29;20039;-90
2021/09/14 07:39:02;;;;;;;24.52;12.00;;;13.50;99.90;;;;;;4914803;29;20514;-91
2021/09/14 07:41:28;;;;;;;25.17;12.25;;;13.50;99.90;;;;;;4901208;29;20091;-92
2021/09/14 07:43:53;;;;;;;24.67;12.65;;;13.50;99.90;;;;;;4901900;29;20028;-91
2021/09/14 07:46:19;;;;;;;29.25;12.93;;;13.60;99.90;;;;;;4924188;29;20044;-89
2021/09/14 07:48:45;;;;;;;24.05;12.38;;;13.60;99.90;;;;;;4903238;29;20024;-91
2021/09/14 07:51:10;;;;;;;22.10;12.52;;;13.60;99.90;;;;;;4901836;29;20035;-90
2021/09/14 07:53:36;;;;;;;23.75;12.10;;;13.60;99.90;;;;;;4901805;29;20042;-89
2021/09/14 07:56:02;;;;;;;24.08;11.88;;;13.60;99.90;;;;;;4901437;29;20485;-90
2021/09/14 07:58:28;;;;;;;21.02;11.98;;;13.60;99.90;;;;;;4901532;29;20175;-89
2021/09/14 08:00:53;;;;;;;20.95;11.18;;;13.60;99.90;;;;;;4899851;29;20027;-89
2021/09/14 08:03:19;;;;;;;27.90;13.20;;;13.60;99.90;;;;;;4901407;29;20032;-90
2021/09/14 08:05:44;;;;;;;26.33;12.52;;;13.50;99.90;;;;;;4901552;29;20040;-90
2021/09/14 08:08:12;;;;;;;25.67;11.93;;;13.50;99.90;;;;;;4901708;29;20024;-90
2021/09/14 08:10:37;;;;;;;22.80;11.68;;;13.50;99.90;;;;;;4918505;29;20036;-91
2021/09/14 08:13:04;;;;;;;21.30;11.35;;;13.40;99.90;;;;;;4901704;29;20028;-90
2021/09/14 08:15:30;;;;;;;20.42;10.30;;;13.40;99.90;;;;;;4901806;29;20032;-92
2021/09/14 08:17:56;;;;;;;16.70;10.05;;;13.50;99.90;;;;;;4901352;29;20020;-91
2021/09/14 08:20:22;;;;;;;19.00;9.57;;;13.50;99.90;;;;;;4901452;29;20394;-90
2021/09/14 08:22:48;;;;;;;25.17;11.63;;;13.50;99.90;;;;;;4901259;29;20478;-90
2021/09/14 08:25:13;;;;;;;17.85;10.57;;;13.50;99.90;;;;;;4901155;29;20225;-90
2021/09/14 08:27:41;;;;;;;18.67;10.75;;;13.50;99.90;;;;;;4901262;29;20459;-92
2021/09/14 08:30:07;;;;;;;22.80;11.20;;;13.60;99.90;;;;;;4901093;29;20032;-90
2021/09/14 08:32:33;;;;;;;21.75;11.90;;;13.60;99.90;;;;;;4901096;29;20062;-89
2021/09/14 08:34:59;;;;;;;18.05;10.07;;;13.70;99.90;;;;;;4901234;29;20059;-91
2021/09/14 08:37:25;;;;;;;20.02;10.32;;;13.70;99.90;;;;;;4900849;29;20063;-90
2021/09/14 08:39:50;;;;;;;20.13;11.70;;;13.80;99.90;;;;;;4900920;29;20070;-90
2021/09/14 08:42:18;;;;;;;19.95;11.68;;;13.80;99.90;;;;;;4901291;29;20035;-90
2021/09/14 08:44:44;;;;;;;20.00;11.70;;;13.80;99.90;;;;;;4900655;29;20040;-90
2021/09/14 08:47:10;;;;;;;18.33;11.60;;;13.80;99.90;;;;;;4900522;29;20032;-90
2021/09/14 08:49:36;;;;;;;19.70;12.10;;;13.80;99.90;;;;;;4917744;29;20036;-92
2021/09/14 08:52:02;;;;;;;22.98;13.30;;;13.80;99.90;;;;;;4901104;29;20501;-91
2021/09/14 08:54:28;;;;;;;22.67;13.88;;;13.80;99.90;;;;;;4900573;29;20486;-92
2021/09/14 08:56:53;;;;;;;24.65;13.68;;;13.80;99.90;;;;;;4900954;29;20031;-91
2021/09/14 08:59:31;;;;;;;18.92;13.23;;;13.80;99.90;;;;;;4900947;29;20028;-91
2021/09/14 09:02:03;;;;;;;20.77;12.85;;;13.80;99.90;;;;;;4900823;29;20123;-90
2021/09/14 09:04:29;;;;;;;18.75;12.93;;;13.80;99.90;;;;;;4900793;29;20047;-92
2021/09/14 09:06:55;;;;;;;21.35;13.70;;;13.90;99.90;;;;;;4901701;29;20036;-91
2021/09/14 09:09:23;;;;;;;22.08;13.75;;;13.90;99.90;;;;;;4904685;29;20031;-92
2021/09/14 09:11:57;;;;;;;27.08;14.80;;;13.90;99.90;;;;;;4904910;29;20123;-91
2021/09/14 09:14:41;;;;;;;20.02;12.85;;;13.90;99.90;;;;;;4905157;29;20036;-90
2021/09/14 09:17:06;;;;;;;20.08;13.90;;;13.90;99.90;;;;;;4922078;29;20036;-91
2021/09/14 09:19:32;;;;;;;18.85;12.30;;;13.90;99.90;;;;;;4911037;29;20035;-91
2021/09/14 09:21:58;;;;;;;19.65;12.23;;;13.90;99.90;;;;;;4909781;29;20127;-92
2021/09/14 09:24:24;;;;;;;14.57;9.55;;;13.90;99.90;;;;;;4907226;29;20029;-90
2021/09/14 09:26:51;;;;;;;16.55;9.82;;;13.80;99.90;;;;;;4911308;29;20058;-91
2021/09/14 09:29:24;;;;;;;14.38;9.90;;;13.90;99.90;;;;;;4911425;29;20039;-91
2021/09/14 09:31:51;;;;;;;15.02;10.05;;;13.90;99.90;;;;;;4916508;29;20050;-90
2021/09/14 09:34:26;;;;;;;14.55;10.75;;;13.90;99.90;;;;;;4909109;29;20038;-90
2021/09/14 09:37:05;;;;;;;14.90;10.02;;;13.90;99.90;;;;;;4909340;29;20025;-90
2021/09/14 09:39:44;;;;;;;13.40;8.93;;;13.90;99.90;;;;;;4902938;29;20040;-90
2021/09/14 09:42:11;;;;;;;11.85;8.95;;;13.90;99.90;;;;;;4886272;29;20115;-91
2021/09/14 09:44:37;;;;;;;14.55;9.25;;;13.90;99.90;;;;;;4885302;29;20159;-90
2021/09/14 09:47:03;;;;;;;11.15;9.00;;;14.00;99.90;;;;;;4885447;29;20033;-91
2021/09/14 09:49:29;;;;;;;13.52;10.00;;;13.90;99.90;;;;;;4885843;29;20542;-90
2021/09/14 09:51:57;;;;;;;15.60;10.57;;;13.90;99.90;;;;;;4885904;29;20123;-90
2021/09/14 09:54:22;;;;;;;12.93;8.85;;;14.00;99.90;;;;;;4886040;29;20025;-90
2021/09/14 09:56:49;;;;;;;13.70;10.20;;;14.00;99.90;;;;;;4902554;29;20024;-90
2021/09/14 09:59:16;;;;;;;16.67;10.40;;;14.00;99.90;;;;;;4902658;29;20032;-89
2021/09/14 10:01:43;;;;;;;16.92;11.20;;;14.00;99.90;;;;;;4885726;29;20032;-90
2021/09/14 10:04:17;;;;;;;15.20;11.30;;;13.90;99.90;;;;;;4901959;29;20064;-94
2021/09/14 10:06:46;;;;;;;19.08;13.75;;;13.90;99.90;;;;;;4885540;29;20036;-89
2021/09/14 10:09:12;;;;;;;19.52;13.57;;;13.90;99.90;;;;;;4885322;29;20112;-86
2021/09/14 10:11:38;;;;;;;21.42;15.98;;;14.00;99.90;;;;;;4885129;29;20081;-91
2021/09/14 10:14:06;;;;;;;20.42;15.82;;;14.00;99.90;;;;;;4885434;29;20032;-91
2021/09/14 10:16:35;;;;;;;22.65;15.77;;;14.00;99.90;;;;;;4885468;29;20040;-91
2021/09/14 10:19:08;;;;;;;23.48;15.80;;;14.00;99.90;;;;;;4885364;29;20031;-94
2021/09/14 10:21:34;;;;;;;20.65;16.73;;;14.00;99.90;;;;;;4885340;29;20032;-92
2021/09/14 10:23:59;;;;;;;21.60;16.20;;;14.00;99.90;;;;;;4884633;29;20044;-91
2021/09/14 10:26:34;;;;;;;22.15;16.30;;;14.00;99.90;;;;;;4885231;29;20047;-91
2021/09/14 10:29:12;;;;;;;21.85;16.30;;;14.10;99.90;;;;;;4885364;29;20482;-90
2021/09/14 10:31:38;;;;;;;24.17;15.85;;;14.00;99.90;;;;;;4884973;29;20028;-89
2021/09/14 10:34:13;;;;;;;20.73;15.45;;;14.00;99.90;;;;;;4901427;29;20025;-90
2021/09/14 10:36:42;;;;;;;21.95;15.40;;;14.00;99.90;;;;;;4884877;29;20028;-92
2021/09/14 10:39:23;;;;;;;24.02;17.67;;;14.10;99.90;;;;;;4900360;29;20040;-91
2021/09/14 10:41:53;;;;;;;21.65;16.02;;;14.10;99.90;;;;;;4903314;29;20479;-92
2021/09/14 10:44:30;;;;;;;26.33;16.23;;;14.10;99.90;;;;;;4903151;29;20040;-91
2021/09/14 10:47:08;;;;;;;19.85;15.00;;;14.10;99.90;;;;;;4903186;29;20039;-94
2021/09/14 10:50:00;;;;;;;21.40;14.02;;;14.20;99.90;;;;;;4920143;29;20032;-91
2021/09/14 10:52:42;;;;;;;16.23;12.55;;;14.20;99.90;;;;;;4903795;29;20036;-90
2021/09/14 10:55:13;;;;;;;17.13;11.85;;;14.30;99.90;;;;;;4930845;29;20059;-92
2021/09/14 10:57:51;;;;;;;16.60;13.15;;;14.40;99.90;;;;;;4903461;29;20024;-93
2021/09/14 11:00:19;;;;;;;16.92;13.07;;;14.40;99.90;;;;;;4903447;29;20039;-92
2021/09/14 11:02:59;;;;;;;18.35;13.50;;;14.40;99.90;;;;;;4902481;29;20043;-93
2021/09/14 11:05:35;;;;;;;20.95;12.98;;;14.40;99.90;;;;;;4902735;29;20239;-91
2021/09/14 11:08:06;;;;;;;16.98;12.82;;;14.50;99.90;;;;;;4902889;29;20031;-92
2021/09/14 11:10:38;;;;;;;14.52;10.77;;;14.50;99.90;;;;;;4903276;29;20482;-93
2021/09/14 11:13:04;;;;;;;14.30;10.68;;;14.50;99.90;;;;;;4903789;29;20028;-93
2021/09/14 11:15:31;;;;;;;12.68;9.48;;;14.50;99.90;;;;;;4912005;29;20039;-93
2021/09/14 11:17:56;;;;;;;12.60;10.35;;;14.50;99.90;;;;;;4913505;29;20597;-94
2021/09/14 11:20:26;;;;;;;14.38;10.38;;;14.40;99.90;;;;;;4912397;29;20072;-94
2021/09/14 11:22:54;;;;;;;13.35;9.95;;;14.50;99.90;;;;;;4908934;29;20028;-94
2021/09/14 11:25:29;;;;;;;11.65;9.27;;;14.40;99.90;;;;;;4909408;29;20044;-94
2021/09/14 11:28:04;;;;;;;10.13;7.55;;;14.40;99.90;;;;;;4904303;29;20031;-92
2021/09/14 11:30:32;;;;;;;10.30;7.40;;;14.40;99.90;;;;;;4901758;29;20024;-93
2021/09/14 11:33:01;;;;;;;9.23;6.00;;;14.40;99.90;;;;;;4902030;29;20035;-94
2021/09/14 11:35:29;;;;;;;7.00;5.75;;;14.30;99.90;;;;;;4902184;29;20083;-93
2021/09/14 11:38:06;;;;;;;8.23;5.60;;;14.40;99.90;;;;;;4919356;29;20048;-92
2021/09/14 11:40:35;;;;;;;8.73;5.80;;;14.40;99.90;;;;;;4902688;29;20036;-92
2021/09/14 11:43:03;;;;;;;7.80;5.88;;;14.40;99.90;;;;;;4901910;29;20024;-93
2021/09/14 11:45:31;;;;;;;7.45;5.78;;;14.50;99.90;;;;;;4902411;29;20067;-92
2021/09/14 11:47:57;;;;;;;8.30;5.78;;;14.50;99.90;;;;;;4902180;29;20048;-92
2021/09/14 11:50:24;;;;;;;9.13;6.32;;;14.50;99.90;;;;;;4902131;29;20020;-91
2021/09/14 11:53:04;;;;;;;9.05;6.28;;;14.50;99.90;;;;;;4902123;29;20548;-92
2021/09/14 11:55:30;;;;;;;10.60;5.88;;;14.60;99.90;;;;;;4901569;29;20036;-93
2021/09/14 11:57:57;;;;;;;9.27;5.90;;;14.60;99.90;;;;;;4901926;29;20039;-92
2021/09/14 12:00:36;;;;;;;9.82;5.97;;;14.60;99.90;;;;;;4901507;29;20482;-92
2021/09/14 12:03:01;;;;;;;13.27;7.45;;;14.70;99.90;;;;;;4901811;29;20040;-92
2021/09/14 12:05:27;;;;;;;9.80;6.72;;;14.80;99.90;;;;;;4901415;29;20039;-92
2021/09/14 12:07:57;;;;;;;11.50;6.93;;;14.80;99.90;;;;;;4901128;29;20031;-93
2021/09/14 12:10:24;;;;;;;13.07;7.57;;;14.80;99.90;;;;;;4901675;29;20040;-91
2021/09/14 12:12:59;;;;;;;10.30;7.45;;;14.90;99.90;;;;;;4901227;29;20024;-93
2021/09/14 12:15:29;;;;;;;12.95;7.95;;;15.00;99.90;;;;;;4901162;29;20055;-90
2021/09/14 12:18:04;;;;;;;12.77;8.57;;;15.10;99.90;;;;;;4901754;29;20050;-91
2021/09/14 12:20:30;;;;;;;13.10;8.40;;;15.20;99.90;;;;;;4901568;29;20039;-92
2021/09/14 12:22:55;;;;;;;12.90;8.52;;;15.40;99.90;;;;;;4901269;29;20020;-92
2021/09/14 12:25:21;;;;;;;14.73;9.60;;;15.50;99.90;;;;;;4901196;29;20047;-91
2021/09/14 12:27:47;;;;;;;14.70;10.15;;;15.50;99.90;;;;;;4901417;29;20430;-89
2021/09/14 12:30:12;;;;;;;14.85;9.45;;;15.50;99.90;;;;;;4922471;29;20040;-89
2021/09/14 12:32:38;;;;;;;13.20;8.82;;;15.50;99.90;;;;;;4903502;29;20036;-91
2021/09/14 12:35:05;;;;;;;13.73;9.52;;;15.50;99.90;;;;;;4901017;29;20164;-90
2021/09/14 12:37:30;;;;;;;13.77;9.05;;;15.60;99.90;;;;;;4899101;29;20036;-90
2021/09/14 12:39:56;;;;;;;13.38;9.60;;;15.60;99.90;;;;;;4897921;29;20059;-90
2021/09/14 12:42:25;;;;;;;12.80;8.40;;;15.60;99.90;;;;;;4898387;29;20036;-90
2021/09/14 12:44:50;;;;;;;12.13;7.85;;;15.70;99.90;;;;;;4897760;29;20047;-89
2021/09/14 12:47:16;;;;;;;12.02;7.55;;;15.70;99.90;;;;;;4897710;29;20028;-90
2021/09/14 12:49:42;;;;;;;9.93;7.03;;;15.80;99.90;;;;;;4897767;29;20040;-90
2021/09/14 12:52:07;;;;;;;13.02;8.52;;;15.80;99.90;;;;;;4897582;29;20029;-89
2021/09/14 12:54:33;;;;;;;15.07;9.35;;;15.90;99.90;;;;;;4897942;29;20029;-90
2021/09/14 12:56:58;;;;;;;11.20;8.15;;;15.90;99.90;;;;;;4897864;29;20120;-89
2021/09/14 12:59:24;;;;;;;12.60;8.05;;;15.90;99.90;;;;;;4897918;29;20068;-89
2021/09/14 13:01:50;;;;;;;10.57;7.65;;;16.00;99.90;;;;;;4898018;29;20033;-90
2021/09/14 13:04:15;;;;;;;14.73;8.35;;;16.00;99.90;;;;;;4897665;29;20096;-89
2021/09/14 13:06:41;;;;;;;11.98;7.95;;;16.00;99.90;;;;;;4897407;29;20029;-91
2021/09/14 13:09:07;;;;;;;11.73;7.57;;;16.00;99.90;;;;;;4898144;29;20115;-90
2021/09/14 13:11:32;;;;;;;8.93;6.70;;;16.00;99.90;;;;;;4898184;29;20124;-91
2021/09/14 13:16:42;;;;;;;11.05;7.10;;;15.90;99.90;;;;;;4900211;29;20083;-91
2021/09/14 13:19:08;;;;;;;10.02;7.38;;;15.90;99.90;;;;;;4898005;29;20032;-93
2021/09/14 13:21:34;;;;;;;11.90;7.75;;;15.90;99.90;;;;;;4898224;29;20025;-92
2021/09/14 13:24:00;;;;;;;12.98;8.60;;;15.90;99.90;;;;;;4897826;29;20028;-91
2021/09/14 13:26:25;;;;;;;10.82;8.00;;;15.80;99.90;;;;;;4898829;29;20054;-92
2021/09/14 13:28:51;;;;;;;13.13;8.52;;;15.80;99.90;;;;;;4898016;29;20036;-89
2021/09/14 13:31:18;;;;;;;13.55;8.43;;;15.80;99.90;;;;;;4897880;29;20080;-93
2021/09/14 13:33:44;;;;;;;13.73;9.00;;;15.80;99.90;;;;;;4898311;29;20046;-92
2021/09/14 13:36:10;;;;;;;17.80;10.75;;;15.80;99.90;;;;;;4898013;29;20033;-92
2021/09/14 13:38:36;;;;;;;19.10;10.85;;;15.70;99.90;;;;;;4898368;29;20087;-92
2021/09/14 13:41:14;;;;;;;18.42;10.57;;;15.70;99.90;;;;;;4898208;29;20068;-91